Time;durP1;ratioP1;P1;durP2;ratioP2;P2;SDS_P1;SDS_P2;PMS_P1;PMS_P2;Temp;Humidity;BMP_temperature;BMP_pressure;BME280_temperature;BME280_humidity;BME280_pressure;Samples;Min_cycle;Max_cycle;Signal;HPM_P1;HPM_P2
2022/11/06 00:02:11;;;;;;;11.75;7.20;;;10.10;99.90;;;;;;4921093;29;20059;-81
2022/11/06 00:04:37;;;;;;;11.77;7.70;;;10.10;99.90;;;;;;4906655;29;20479;-81
2022/11/06 00:07:03;;;;;;;10.05;6.47;;;10.10;99.90;;;;;;4937097;29;20490;-81
2022/11/06 00:09:28;;;;;;;10.95;7.20;;;10.00;99.90;;;;;;4933519;29;20472;-81
2022/11/06 00:11:55;;;;;;;17.35;7.00;;;10.00;99.90;;;;;;4918712;29;20043;-80
2022/11/06 00:14:21;;;;;;;12.70;6.65;;;10.00;99.90;;;;;;4911884;29;20130;-81
2022/11/06 00:16:47;;;;;;;11.40;6.80;;;10.00;99.90;;;;;;4939327;28;20112;-80
2022/11/06 00:19:13;;;;;;;9.88;6.32;;;10.10;99.90;;;;;;4922241;29;20094;-80
2022/11/06 00:21:39;;;;;;;12.95;7.43;;;10.10;99.90;;;;;;4952308;29;20514;-81
2022/11/06 00:24:06;;;;;;;11.90;6.32;;;10.50;99.90;;;;;;4953001;29;20039;-81
2022/11/06 00:26:33;;;;;;;12.15;6.70;;;10.00;99.90;;;;;;4937334;29;20495;-81
2022/11/06 00:28:59;;;;;;;11.10;7.03;;;10.00;99.90;;;;;;4954334;29;20039;-81
2022/11/06 00:31:28;;;;;;;13.85;6.85;;;10.10;99.90;;;;;;4950529;29;20432;-80
2022/11/06 00:33:56;;;;;;;12.52;6.88;;;10.10;99.90;;;;;;4935112;29;20527;-81
2022/11/06 00:36:24;;;;;;;11.63;6.65;;;10.00;99.90;;;;;;4953516;29;20058;-81
2022/11/06 00:38:51;;;;;;;12.68;6.00;;;10.00;99.90;;;;;;4952162;29;20039;-81
2022/11/06 00:41:17;;;;;;;9.65;6.03;;;10.00;99.90;;;;;;4953497;29;20051;-81
2022/11/06 00:43:48;;;;;;;11.20;5.82;;;10.10;99.90;;;;;;4937969;29;20613;-81
2022/11/06 00:46:14;;;;;;;12.20;6.50;;;10.10;99.90;;;;;;4953051;28;20067;-81
2022/11/06 00:48:40;;;;;;;12.25;6.03;;;10.10;99.90;;;;;;4953666;29;20045;-81
2022/11/06 00:51:10;;;;;;;10.68;5.40;;;10.10;99.90;;;;;;4922316;29;20130;-81
2022/11/06 00:53:36;;;;;;;12.23;6.68;;;10.10;99.90;;;;;;4937025;29;20039;-81
2022/11/06 00:56:13;;;;;;;10.05;5.78;;;10.00;99.90;;;;;;4937805;29;20038;-81
2022/11/06 00:58:39;;;;;;;9.30;5.30;;;10.00;99.90;;;;;;4937908;29;20040;-81
2022/11/06 01:01:13;;;;;;;11.23;6.25;;;10.00;99.90;;;;;;4937457;29;20043;-81
2022/11/06 01:03:40;;;;;;;11.55;6.53;;;10.00;99.90;;;;;;4931477;29;20031;-81
2022/11/06 01:06:08;;;;;;;14.98;7.22;;;9.90;99.90;;;;;;4937639;29;20399;-81
2022/11/06 01:08:34;;;;;;;12.40;7.40;;;9.90;99.90;;;;;;4937926;29;20075;-81
2022/11/06 01:11:11;;;;;;;12.40;6.93;;;9.80;99.90;;;;;;4949979;29;20039;-81
2022/11/06 01:13:37;;;;;;;13.80;7.43;;;9.80;99.90;;;;;;4937121;29;20075;-81
2022/11/06 01:16:12;;;;;;;10.98;6.25;;;9.90;99.90;;;;;;4950378;29;20494;-81
2022/11/06 01:18:39;;;;;;;13.35;7.10;;;9.70;99.90;;;;;;4952791;29;20039;-81
2022/11/06 01:21:12;;;;;;;14.18;7.22;;;9.70;99.90;;;;;;4922222;29;20039;-81
2022/11/06 01:23:38;;;;;;;14.45;7.32;;;9.70;99.90;;;;;;4952615;29;20091;-81
2022/11/06 01:26:06;;;;;;;11.38;7.35;;;9.60;99.90;;;;;;4953210;29;20458;-81
2022/11/06 01:28:32;;;;;;;14.07;7.78;;;9.60;99.90;;;;;;4951755;29;20075;-81
2022/11/06 01:31:06;;;;;;;11.13;6.32;;;10.40;99.90;;;;;;4936257;29;20067;-81
2022/11/06 01:33:32;;;;;;;15.20;7.35;;;9.50;99.90;;;;;;4949919;29;20040;-82
2022/11/06 01:35:58;;;;;;;16.45;7.43;;;9.80;99.90;;;;;;4932305;29;20038;-81
2022/11/06 01:38:24;;;;;;;13.13;7.35;;;9.60;99.90;;;;;;4921292;29;20040;-81
2022/11/06 01:40:49;;;;;;;18.30;8.23;;;9.60;99.90;;;;;;4950596;29;20036;-81
2022/11/06 01:43:51;;;;;;;15.85;7.15;;;9.50;99.90;;;;;;4936844;29;20054;-82
2022/11/06 01:46:18;;;;;;;15.15;7.68;;;9.70;99.90;;;;;;4955757;28;20564;-81
2022/11/06 01:48:54;;;;;;;12.80;7.35;;;9.60;99.90;;;;;;4925557;29;20046;-81
2022/11/06 01:51:22;;;;;;;15.52;7.90;;;9.60;99.90;;;;;;4954864;29;20127;-81
2022/11/06 01:53:49;;;;;;;15.38;6.82;;;9.60;99.90;;;;;;4956643;29;20081;-81
2022/11/06 01:56:15;;;;;;;16.55;7.55;;;9.50;99.90;;;;;;4956421;29;20053;-81
2022/11/06 01:58:45;;;;;;;13.15;7.00;;;9.60;99.90;;;;;;4939738;29;20050;-81
2022/11/06 02:01:11;;;;;;;17.88;8.25;;;9.50;99.90;;;;;;4934660;29;20043;-81
2022/11/06 02:03:38;;;;;;;14.93;8.85;;;9.50;99.90;;;;;;4950721;29;20051;-81
2022/11/06 02:06:06;;;;;;;16.58;8.63;;;9.50;99.90;;;;;;4940110;29;20043;-81
2022/11/06 02:08:32;;;;;;;16.15;7.18;;;9.50;99.90;;;;;;4956323;29;20519;-81
2022/11/06 02:10:58;;;;;;;13.98;8.45;;;9.50;99.90;;;;;;4923400;29;20043;-81
2022/11/06 02:13:32;;;;;;;15.63;7.70;;;9.50;99.90;;;;;;4940445;29;20404;-81
2022/11/06 02:16:13;;;;;;;14.55;7.50;;;9.50;99.90;;;;;;4940500;29;20035;-81
2022/11/06 02:19:16;;;;;;;16.13;8.70;;;9.50;99.90;;;;;;4952833;29;20535;-81
2022/11/06 02:22:09;;;;;;;13.63;7.95;;;9.40;99.90;;;;;;4949678;29;20043;-81
2022/11/06 02:24:47;;;;;;;11.65;8.20;;;9.50;99.90;;;;;;4939031;29;20046;-81
2022/11/06 02:27:18;;;;;;;16.10;8.02;;;9.50;99.90;;;;;;4953602;29;20036;-81
2022/11/06 02:29:53;;;;;;;20.92;8.43;;;9.40;99.90;;;;;;4953102;29;20036;-81
2022/11/06 02:32:38;;;;;;;15.85;8.05;;;9.80;99.90;;;;;;4971695;28;20050;-81
2022/11/06 02:35:15;;;;;;;15.90;8.20;;;9.50;99.90;;;;;;4936902;29;20043;-81
2022/11/06 02:37:43;;;;;;;11.57;7.03;;;9.50;99.90;;;;;;4941814;29;20070;-81
2022/11/06 02:40:10;;;;;;;13.38;7.03;;;9.50;99.90;;;;;;4939360;29;20050;-81
2022/11/06 02:42:40;;;;;;;11.95;6.50;;;9.50;99.90;;;;;;4939780;29;20035;-81
2022/11/06 02:45:09;;;;;;;13.75;7.18;;;9.50;99.90;;;;;;4939598;29;20055;-81
2022/11/06 02:47:38;;;;;;;14.02;7.40;;;9.50;99.90;;;;;;4937905;29;20062;-81
2022/11/06 02:50:12;;;;;;;13.43;6.53;;;9.70;99.90;;;;;;4939626;29;20078;-81
2022/11/06 02:52:50;;;;;;;17.48;7.80;;;9.50;99.90;;;;;;4939109;29;20088;-81
2022/11/06 02:55:24;;;;;;;14.10;7.15;;;9.50;99.90;;;;;;4939391;29;20066;-81
2022/11/06 02:57:56;;;;;;;12.75;6.32;;;9.90;99.90;;;;;;4937553;29;20039;-81
2022/11/06 03:00:23;;;;;;;15.50;6.90;;;9.60;99.90;;;;;;4937466;29;21464;-81
2022/11/06 03:02:52;;;;;;;14.18;6.82;;;9.60;99.90;;;;;;4939548;29;20075;-81
2022/11/06 03:06:01;;;;;;;11.30;5.50;;;9.60;99.90;;;;;;4954626;29;20035;-81
2022/11/06 03:08:37;;;;;;;15.77;7.18;;;9.50;99.90;;;;;;4847161;29;20560;-81
2022/11/06 03:11:03;;;;;;;;;;;9.60;99.90;;;;;;4921912;29;20059;-81
2022/11/06 03:13:37;;;;;;;11.33;6.60;;;9.60;99.90;;;;;;4951943;29;20437;-81
2022/11/06 03:16:26;;;;;;;15.18;6.40;;;9.50;99.90;;;;;;4954024;29;20048;-81
2022/11/06 03:18:55;;;;;;;14.30;6.97;;;9.60;99.90;;;;;;4939916;29;20067;-81
2022/11/06 03:21:29;;;;;;;16.73;6.68;;;9.60;99.90;;;;;;4940129;29;20138;-81
2022/11/06 03:24:17;;;;;;;8.13;6.00;;;9.70;99.90;;;;;;4943417;28;20073;-81
2022/11/06 03:26:47;;;;;;;12.18;6.72;;;9.50;99.90;;;;;;4962565;29;20042;-81
2022/11/06 03:29:36;;;;;;;13.48;5.85;;;9.50;99.90;;;;;;4948854;29;20051;-82
2022/11/06 03:32:16;;;;;;;12.65;5.57;;;9.40;99.90;;;;;;4938699;29;20503;-81
2022/11/06 03:34:51;;;;;;;11.38;5.82;;;9.40;99.90;;;;;;4938453;29;20039;-81
2022/11/06 03:37:27;;;;;;;20.80;7.00;;;9.40;99.90;;;;;;4937950;29;20054;-81
2022/11/06 03:39:53;;;;;;;;;;;9.40;99.90;;;;;;4939437;29;20404;-81
2022/11/06 03:42:26;;;;;;;17.65;6.70;;;9.40;99.90;;;;;;4938995;29;20012;-81
2022/11/06 03:44:59;;;;;;;13.25;6.82;;;9.70;99.90;;;;;;4938228;29;20407;-81
2022/11/06 03:47:31;;;;;;;14.77;6.80;;;9.40;99.90;;;;;;4938938;29;20046;-81
2022/11/06 03:50:26;;;;;;;11.15;5.22;;;10.50;99.90;;;;;;4937773;29;20472;-81
2022/11/06 03:52:57;;;;;;;12.35;6.07;;;9.40;99.90;;;;;;4944610;29;20412;-81
2022/11/06 03:55:31;;;;;;;10.10;6.25;;;9.40;99.90;;;;;;4954175;28;20070;-81
2022/11/06 03:58:02;;;;;;;17.33;5.93;;;9.40;99.90;;;;;;4954228;29;20039;-81
2022/11/06 04:00:29;;;;;;;13.00;5.38;;;9.30;99.90;;;;;;4938333;29;20511;-81
2022/11/06 04:03:05;;;;;;;12.20;5.00;;;9.30;99.90;;;;;;4922282;29;20035;-81
2022/11/06 04:05:38;;;;;;;13.63;6.25;;;9.30;99.90;;;;;;4934295;29;20044;-81
2022/11/06 04:13:56;;;;;;;12.40;6.32;;;9.30;99.90;;;;;;4966641;28;20047;-81
2022/11/06 04:16:30;;;;;;;11.93;5.70;;;9.20;99.90;;;;;;4938456;29;20448;-81
2022/11/06 04:18:57;;;;;;;14.38;6.15;;;9.30;99.90;;;;;;4924061;29;20050;-81
2022/11/06 04:21:44;;;;;;;10.45;3.80;;;9.30;99.90;;;;;;4922012;29;20040;-81
2022/11/06 04:27:12;;;;;;;13.35;5.75;;;10.10;99.90;;;;;;4946169;29;20044;-82
2022/11/06 04:29:54;;;;;;;12.20;5.47;;;9.30;99.90;;;;;;4936816;29;20039;-81
2022/11/06 04:32:54;;;;;;;15.98;5.53;;;9.20;99.90;;;;;;4934975;29;20046;-81
2022/11/06 04:35:25;;;;;;;9.43;5.07;;;9.30;99.90;;;;;;4935705;29;20443;-81
2022/11/06 04:38:14;;;;;;;16.40;5.10;;;9.30;99.90;;;;;;4937625;29;20047;-81
2022/11/06 04:40:57;;;;;;;12.05;5.93;;;9.40;99.90;;;;;;4932806;29;20163;-82
2022/11/06 04:43:47;;;;;;;13.02;5.57;;;9.20;99.90;;;;;;4937620;29;20734;-81
2022/11/06 04:46:20;;;;;;;12.60;4.57;;;9.30;99.90;;;;;;4944823;29;20063;-81
2022/11/06 04:48:46;;;;;;;10.23;5.47;;;9.20;99.90;;;;;;4947068;29;20115;-81
2022/11/06 04:51:13;;;;;;;10.82;5.03;;;9.20;99.90;;;;;;4936756;29;20068;-81
2022/11/06 04:53:40;;;;;;;8.88;4.57;;;9.60;99.90;;;;;;4921458;29;20039;-81
2022/11/06 04:56:19;;;;;;;15.52;5.07;;;10.00;99.90;;;;;;4936543;29;20050;-81
2022/11/06 04:58:45;;;;;;;12.75;5.80;;;9.30;99.90;;;;;;4949690;29;20488;-81
2022/11/06 05:01:11;;;;;;;12.05;5.53;;;9.30;99.90;;;;;;4935035;29;20039;-81
2022/11/06 05:03:37;;;;;;;13.50;5.53;;;9.20;99.90;;;;;;4920385;29;20145;-81
2022/11/06 05:06:03;;;;;;;13.38;5.47;;;9.20;99.90;;;;;;4919311;29;20039;-81
2022/11/06 05:08:28;;;;;;;10.40;4.85;;;9.20;99.90;;;;;;4896033;29;20082;-81
2022/11/06 05:10:54;;;;;;;19.25;5.75;;;9.30;99.90;;;;;;4924208;28;20079;-81
2022/11/06 05:13:20;;;;;;;14.10;4.50;;;9.30;99.90;;;;;;4939639;29;20110;-81
2022/11/06 05:15:45;;;;;;;11.82;5.65;;;9.30;99.90;;;;;;4921307;29;20078;-81
2022/11/06 05:18:11;;;;;;;13.70;4.75;;;9.30;99.90;;;;;;4905162;29;20050;-81
2022/11/06 05:20:37;;;;;;;13.85;4.60;;;9.30;99.90;;;;;;4953017;28;20043;-81
2022/11/06 05:23:03;;;;;;;12.50;4.28;;;9.30;99.90;;;;;;4925698;29;20055;-81
2022/11/06 05:25:35;;;;;;;13.75;4.65;;;9.40;99.90;;;;;;4956892;29;20459;-81
2022/11/06 05:28:04;;;;;;;9.38;3.53;;;9.40;99.90;;;;;;4950777;29;20031;-80
2022/11/06 05:30:30;;;;;;;8.18;3.58;;;9.40;99.90;;;;;;4938213;28;20074;-81
2022/11/06 05:32:56;;;;;;;9.82;3.20;;;9.60;99.90;;;;;;4924245;29;20476;-81
2022/11/06 05:35:21;;;;;;;16.55;4.82;;;9.40;99.90;;;;;;4938296;29;20054;-81
2022/11/06 05:37:47;;;;;;;9.00;4.05;;;9.70;99.90;;;;;;4956189;28;20495;-81
2022/11/06 05:40:13;;;;;;;7.78;3.65;;;9.70;99.90;;;;;;4947325;29;20057;-81
2022/11/06 05:42:40;;;;;;;9.55;4.15;;;9.60;99.90;;;;;;4934470;29;20370;-81
2022/11/06 05:45:07;;;;;;;11.38;3.95;;;9.50;99.90;;;;;;4951618;29;20527;-81
2022/11/06 05:47:33;;;;;;;12.90;3.78;;;9.50;99.90;;;;;;4954790;29;20093;-81
2022/11/06 05:49:59;;;;;;;11.68;4.30;;;9.50;99.90;;;;;;4940641;29;20082;-81
2022/11/06 05:52:25;;;;;;;10.23;4.00;;;9.50;99.90;;;;;;4924991;29;20046;-81
2022/11/06 05:54:51;;;;;;;10.32;3.55;;;9.40;99.90;;;;;;4935101;29;20050;-81
2022/11/06 05:57:17;;;;;;;6.97;3.53;;;9.70;99.90;;;;;;4925149;29;20047;-81
2022/11/06 05:59:43;;;;;;;14.35;4.03;;;9.50;99.90;;;;;;4940981;29;20396;-81
2022/11/06 06:02:09;;;;;;;13.20;3.97;;;9.50;99.90;;;;;;4954861;29;20428;-81
2022/11/06 06:04:35;;;;;;;9.23;3.45;;;9.60;99.90;;;;;;4921858;29;20050;-81
2022/11/06 06:07:00;;;;;;;10.48;3.60;;;9.60;99.90;;;;;;4917206;29;20039;-81
2022/11/06 06:09:26;;;;;;;10.75;3.78;;;9.60;99.90;;;;;;4925201;29;20042;-81
2022/11/06 06:11:53;;;;;;;8.43;3.35;;;9.60;99.90;;;;;;4907846;29;20505;-81
2022/11/06 06:14:19;;;;;;;12.63;4.00;;;9.80;99.90;;;;;;4956422;29;20045;-81
2022/11/06 06:16:46;;;;;;;11.25;4.05;;;9.60;99.90;;;;;;4940866;29;20385;-81
2022/11/06 06:19:12;;;;;;;12.15;4.03;;;9.70;99.90;;;;;;4937743;29;20035;-81
2022/11/06 06:21:38;;;;;;;12.32;3.53;;;9.60;99.90;;;;;;4955968;29;20057;-81
2022/11/06 06:24:04;;;;;;;8.45;2.85;;;9.60;99.90;;;;;;4939675;29;20118;-81
2022/11/06 06:26:30;;;;;;;5.93;2.97;;;9.70;99.90;;;;;;4947402;29;20048;-81
2022/11/06 06:28:56;;;;;;;7.25;2.53;;;9.70;99.90;;;;;;4924083;29;20101;-81
2022/11/06 06:31:22;;;;;;;6.97;2.95;;;9.70;99.90;;;;;;4922753;29;20036;-80
2022/11/06 06:33:48;;;;;;;7.57;3.20;;;9.70;99.90;;;;;;4956271;29;20380;-81
2022/11/06 06:36:14;;;;;;;7.65;3.05;;;9.80;99.90;;;;;;4908973;29;20244;-81
2022/11/06 06:38:40;;;;;;;7.50;3.17;;;9.80;99.90;;;;;;4939555;29;20111;-81
2022/11/06 06:41:07;;;;;;;12.02;3.38;;;9.90;99.90;;;;;;4939704;29;20204;-82
2022/11/06 06:43:33;;;;;;;10.90;3.40;;;9.80;99.90;;;;;;4939462;29;20175;-81
2022/11/06 06:46:01;;;;;;;7.05;3.10;;;9.80;99.90;;;;;;4921675;29;20409;-81
2022/11/06 06:48:27;;;;;;;10.73;3.90;;;9.90;99.90;;;;;;4939921;29;20079;-82
2022/11/06 06:50:55;;;;;;;7.32;2.53;;;9.90;99.90;;;;;;4940112;29;20070;-81
2022/11/06 06:53:21;;;;;;;7.30;2.95;;;9.90;99.90;;;;;;4950145;29;20047;-81
2022/11/06 06:55:47;;;;;;;8.50;3.15;;;9.80;99.90;;;;;;4922781;29;20073;-81
2022/11/06 06:58:12;;;;;;;10.18;3.15;;;9.90;99.90;;;;;;4919276;29;20399;-81
2022/11/06 07:00:38;;;;;;;13.68;3.00;;;10.00;99.90;;;;;;4909263;29;20050;-81
2022/11/06 07:03:04;;;;;;;10.20;2.80;;;9.90;99.90;;;;;;4939937;29;20523;-81
2022/11/06 07:05:30;;;;;;;3.67;2.30;;;9.90;99.90;;;;;;4920773;29;20040;-82
2022/11/06 07:07:56;;;;;;;8.85;3.33;;;9.90;99.90;;;;;;4933937;29;20314;-82
2022/11/06 07:10:22;;;;;;;7.50;2.25;;;9.90;99.90;;;;;;4924016;29;20126;-82
2022/11/06 07:12:47;;;;;;;8.82;2.92;;;10.00;99.90;;;;;;4907784;29;20047;-82
2022/11/06 07:15:13;;;;;;;9.50;3.30;;;10.00;99.90;;;;;;4939285;29;20389;-82
2022/11/06 07:17:39;;;;;;;7.18;2.58;;;10.00;99.90;;;;;;4939651;29;20034;-83
2022/11/06 07:20:07;;;;;;;9.70;3.08;;;10.00;99.90;;;;;;4919954;29;20039;-82
2022/11/06 07:22:32;;;;;;;9.75;2.92;;;10.00;99.90;;;;;;4939588;29;20126;-82
2022/11/06 07:24:58;;;;;;;8.43;3.33;;;10.70;99.90;;;;;;4921338;29;20063;-81
2022/11/06 07:27:24;;;;;;;6.93;2.80;;;10.10;99.90;;;;;;4921768;29;20039;-80
2022/11/06 07:29:50;;;;;;;4.88;2.80;;;10.10;99.90;;;;;;4939276;29;20042;-80
2022/11/06 07:32:16;;;;;;;7.95;3.10;;;10.10;99.90;;;;;;4940374;29;20085;-81
2022/11/06 07:34:41;;;;;;;9.52;2.90;;;10.20;99.90;;;;;;4924429;29;20043;-81
2022/11/06 07:37:07;;;;;;;9.02;2.47;;;10.10;99.90;;;;;;4921202;29;20111;-82
2022/11/06 07:39:33;;;;;;;12.93;3.33;;;10.10;99.90;;;;;;4967813;28;20031;-81
2022/11/06 07:41:59;;;;;;;5.45;2.20;;;10.20;99.90;;;;;;4958984;29;20058;-81
2022/11/06 07:44:25;;;;;;;6.50;2.90;;;10.30;99.90;;;;;;4954614;29;20086;-81
2022/11/06 07:46:50;;;;;;;7.47;2.63;;;10.10;99.90;;;;;;4923464;28;20468;-81
2022/11/06 07:49:16;;;;;;;8.70;2.78;;;10.20;99.90;;;;;;4922744;29;20142;-81
2022/11/06 07:51:43;;;;;;;8.75;2.83;;;10.20;99.90;;;;;;4938151;29;20035;-81
2022/11/06 07:54:10;;;;;;;12.77;3.10;;;10.30;99.90;;;;;;4938805;29;20050;-81
2022/11/06 07:56:36;;;;;;;7.18;2.70;;;10.30;99.90;;;;;;4954739;29;20051;-81
2022/11/06 07:59:03;;;;;;;9.68;2.90;;;10.20;99.90;;;;;;4921172;29;20049;-83
2022/11/06 08:01:28;;;;;;;6.50;2.70;;;10.20;99.90;;;;;;4936504;29;20395;-81
2022/11/06 08:03:54;;;;;;;10.95;3.20;;;10.80;99.90;;;;;;4936509;29;20147;-83
2022/11/06 08:06:20;;;;;;;11.30;2.60;;;10.20;99.90;;;;;;4914342;29;20066;-83
2022/11/06 08:08:46;;;;;;;12.23;2.88;;;10.30;99.90;;;;;;4935062;29;20114;-82
2022/11/06 08:11:12;;;;;;;7.32;2.70;;;10.30;99.90;;;;;;4953990;29;20146;-82
2022/11/06 08:13:38;;;;;;;10.68;3.30;;;10.50;99.90;;;;;;4938681;29;20556;-82
2022/11/06 08:16:09;;;;;;;8.23;2.90;;;10.30;99.90;;;;;;4922325;29;20031;-84
2022/11/06 08:18:35;;;;;;;10.00;2.47;;;10.30;99.90;;;;;;4951871;29;20039;-81
2022/11/06 08:21:01;;;;;;;9.13;2.33;;;10.30;99.90;;;;;;4938485;29;20039;-81
2022/11/06 08:23:27;;;;;;;10.40;3.10;;;10.40;99.90;;;;;;4938296;29;20070;-81
2022/11/06 08:25:58;;;;;;;4.88;2.50;;;10.30;99.90;;;;;;4938859;29;20039;-81
2022/11/06 08:28:24;;;;;;;5.32;2.58;;;10.40;99.90;;;;;;4922705;29;20050;-81
2022/11/06 08:30:50;;;;;;;8.40;2.47;;;10.40;99.90;;;;;;4948868;29;20115;-82
2022/11/06 08:33:16;;;;;;;8.43;2.63;;;10.40;99.90;;;;;;4931379;29;20142;-82
2022/11/06 08:35:42;;;;;;;6.63;2.75;;;10.40;99.90;;;;;;4938485;29;20454;-83
2022/11/06 08:38:08;;;;;;;6.38;2.80;;;10.40;99.90;;;;;;4912951;29;20070;-83
2022/11/06 08:40:36;;;;;;;8.98;2.90;;;10.50;99.90;;;;;;4900192;29;20118;-82
2022/11/06 08:43:08;;;;;;;6.68;2.30;;;10.50;99.90;;;;;;4944892;29;20039;-80
2022/11/06 08:45:38;;;;;;;5.60;2.38;;;10.50;99.90;;;;;;4947564;29;20070;-82
2022/11/06 08:48:05;;;;;;;8.82;2.90;;;10.70;99.90;;;;;;4928744;29;20040;-82
2022/11/06 08:50:32;;;;;;;8.70;3.05;;;10.50;99.90;;;;;;4926905;29;20046;-81
2022/11/06 08:53:03;;;;;;;8.80;2.78;;;10.60;99.90;;;;;;4920423;29;20043;-82
2022/11/06 08:55:38;;;;;;;7.35;2.60;;;10.50;99.90;;;;;;4940686;29;20399;-81
2022/11/06 08:58:05;;;;;;;6.05;2.53;;;10.60;99.90;;;;;;4958275;29;20046;-82
2022/11/06 09:00:31;;;;;;;8.27;2.40;;;10.60;99.90;;;;;;4953208;29;20075;-81
2022/11/06 09:03:03;;;;;;;10.43;2.78;;;10.70;99.90;;;;;;4935656;29;20091;-82
2022/11/06 09:05:30;;;;;;;11.73;2.90;;;10.80;99.90;;;;;;4942232;29;20039;-81
2022/11/06 09:07:58;;;;;;;9.90;2.88;;;10.80;99.90;;;;;;4941309;29;20039;-81
2022/11/06 09:10:26;;;;;;;6.70;2.33;;;10.90;99.90;;;;;;4937952;29;20035;-81
2022/11/06 09:12:52;;;;;;;9.68;2.47;;;10.90;99.90;;;;;;4953590;29;20055;-82
2022/11/06 09:15:21;;;;;;;6.63;2.10;;;10.90;99.90;;;;;;4905565;28;20164;-81
2022/11/06 09:17:49;;;;;;;7.97;2.75;;;11.00;99.90;;;;;;4936867;29;20094;-81
2022/11/06 09:20:17;;;;;;;7.97;3.03;;;11.00;99.90;;;;;;4941399;29;20075;-82
2022/11/06 09:22:44;;;;;;;9.85;2.67;;;11.10;99.90;;;;;;4916808;29;20043;-82
2022/11/06 09:25:10;;;;;;;8.27;2.90;;;11.20;99.90;;;;;;4940483;29;20039;-82
2022/11/06 09:27:44;;;;;;;8.23;2.10;;;11.30;99.90;;;;;;4938344;29;20047;-82
2022/11/06 09:30:12;;;;;;;6.80;2.63;;;11.30;99.90;;;;;;4913048;28;20039;-83
2022/11/06 09:32:38;;;;;;;6.93;2.45;;;11.30;99.90;;;;;;4935811;29;20044;-81
2022/11/06 09:35:04;;;;;;;8.10;2.35;;;11.20;99.90;;;;;;4937305;29;20098;-83
2022/11/06 09:37:30;;;;;;;9.05;2.50;;;11.20;99.90;;;;;;4941835;29;20143;-82
2022/11/06 09:39:55;;;;;;;5.85;2.35;;;11.30;99.90;;;;;;4939549;29;20476;-83
2022/11/06 09:42:48;;;;;;;8.52;2.17;;;11.30;99.90;;;;;;4939746;29;20050;-82
2022/11/06 09:45:21;;;;;;;10.32;3.33;;;11.40;99.90;;;;;;4939902;29;20519;-83
2022/11/06 09:47:56;;;;;;;7.88;2.05;;;11.40;99.90;;;;;;4953489;29;20047;-83
2022/11/06 09:50:27;;;;;;;9.20;2.20;;;11.40;99.90;;;;;;4950339;28;20492;-83
2022/11/06 09:53:05;;;;;;;7.38;2.33;;;11.50;99.90;;;;;;4941466;29;20114;-83
2022/11/06 09:55:36;;;;;;;8.90;2.40;;;11.50;99.90;;;;;;4952178;29;20071;-82
2022/11/06 09:58:14;;;;;;;5.28;2.13;;;11.50;99.90;;;;;;4952458;29;20054;-82
2022/11/06 10:00:40;;;;;;;4.30;1.90;;;11.50;99.90;;;;;;4939089;29;20046;-83
2022/11/06 10:03:17;;;;;;;7.38;2.13;;;11.50;99.90;;;;;;4924392;29;20039;-82
2022/11/06 10:05:45;;;;;;;10.30;2.92;;;11.60;99.90;;;;;;4940621;28;20035;-84
2022/11/06 10:08:24;;;;;;;7.30;2.40;;;11.50;99.90;;;;;;4944324;28;20050;-83
2022/11/06 10:11:02;;;;;;;6.30;2.05;;;11.40;99.90;;;;;;4956467;29;20044;-82
2022/11/06 10:13:33;;;;;;;6.65;2.17;;;11.50;99.90;;;;;;4933400;29;20054;-84
2022/11/06 10:16:19;;;;;;;6.45;2.10;;;11.50;99.90;;;;;;4931893;29;20491;-83
2022/11/06 10:19:09;;;;;;;6.78;2.83;;;11.50;99.90;;;;;;4936165;29;20487;-84
2022/11/06 10:21:57;;;;;;;11.27;2.38;;;11.50;99.90;;;;;;4940874;29;20047;-83
2022/11/06 10:24:55;;;;;;;7.78;2.03;;;11.50;99.90;;;;;;4940412;29;20039;-83
2022/11/06 10:27:38;;;;;;;4.88;1.77;;;11.60;99.90;;;;;;4927527;29;20040;-82
2022/11/06 10:30:15;;;;;;;9.52;2.70;;;11.70;99.90;;;;;;4958677;28;20109;-81
2022/11/06 10:33:08;;;;;;;7.40;2.58;;;11.70;99.90;;;;;;4936308;29;20047;-81
2022/11/06 10:35:39;;;;;;;5.63;2.05;;;11.70;99.90;;;;;;4938763;29;20114;-82
2022/11/06 10:38:37;;;;;;;5.43;1.90;;;11.70;99.90;;;;;;4940895;29;20134;-82
2022/11/06 10:41:03;;;;;;;5.65;1.98;;;11.90;99.90;;;;;;4937531;29;20130;-83
2022/11/06 10:43:31;;;;;;;6.65;1.88;;;11.90;99.90;;;;;;4924470;29;20179;-85
2022/11/06 10:46:19;;;;;;;8.45;2.42;;;12.00;99.90;;;;;;4919116;29;20055;-82
2022/11/06 10:49:34;;;;;;;8.05;2.70;;;12.00;99.90;;;;;;4935663;29;20074;-83
2022/11/06 10:52:07;;;;;;;5.05;1.83;;;12.10;99.90;;;;;;4932061;29;20419;-84
2022/11/06 10:55:13;;;;;;;6.18;2.05;;;12.10;99.90;;;;;;4937387;29;20047;-82
2022/11/06 10:57:58;;;;;;;8.45;2.15;;;12.10;99.90;;;;;;4931084;29;20054;-81
2022/11/06 11:00:24;;;;;;;8.32;2.28;;;12.20;99.90;;;;;;4937767;29;20039;-82
2022/11/06 11:02:59;;;;;;;5.03;1.98;;;12.10;99.90;;;;;;4931353;29;20111;-81
2022/11/06 11:05:36;;;;;;;6.68;2.00;;;12.10;99.90;;;;;;4936071;29;20031;-82
2022/11/06 11:08:02;;;;;;;5.93;2.00;;;12.10;99.90;;;;;;4933779;29;20504;-83
2022/11/06 11:10:34;;;;;;;7.32;1.90;;;12.10;99.90;;;;;;4933706;29;20031;-82
2022/11/06 11:13:05;;;;;;;7.75;1.80;;;12.10;99.90;;;;;;4939370;29;20050;-82
2022/11/06 11:15:45;;;;;;;6.53;2.22;;;12.10;99.90;;;;;;4939556;29;20046;-83
2022/11/06 11:18:11;;;;;;;8.18;2.33;;;12.10;99.90;;;;;;4952182;28;20046;-83
2022/11/06 11:20:39;;;;;;;4.68;1.73;;;12.00;99.90;;;;;;4934837;29;20039;-85
2022/11/06 11:23:23;;;;;;;11.13;1.90;;;12.00;99.90;;;;;;4946283;29;20043;-82
2022/11/06 11:25:55;;;;;;;7.95;2.40;;;12.10;99.90;;;;;;4950197;29;20038;-80
2022/11/06 11:28:26;;;;;;;7.38;2.05;;;12.10;99.90;;;;;;4945316;29;20055;-80
2022/11/06 11:31:14;;;;;;;7.07;2.20;;;12.10;99.90;;;;;;4935313;29;20044;-82
2022/11/06 11:33:46;;;;;;;7.35;1.98;;;12.10;99.90;;;;;;4931904;29;20203;-82
2022/11/06 11:36:12;;;;;;;5.82;1.90;;;12.10;99.90;;;;;;4954209;29;20105;-84
2022/11/06 11:38:39;;;;;;;5.78;1.70;;;12.10;99.90;;;;;;4936321;29;20129;-88
2022/11/06 11:41:25;;;;;;;6.72;1.63;;;12.10;99.90;;;;;;4938461;29;20487;-82
2022/11/06 11:44:06;;;;;;;4.53;1.75;;;12.10;99.90;;;;;;4920716;29;20408;-88
2022/11/06 11:46:32;;;;;;;5.65;2.00;;;12.10;99.90;;;;;;4956385;29;20063;-86
2022/11/06 11:48:58;;;;;;;6.63;2.05;;;12.10;99.90;;;;;;4936137;29;20035;-84
2022/11/06 11:51:26;;;;;;;8.73;2.15;;;12.10;99.90;;;;;;4923727;29;20039;-87
2022/11/06 11:54:00;;;;;;;6.00;1.80;;;12.20;99.90;;;;;;4950716;29;20079;-84
2022/11/06 11:56:27;;;;;;;8.20;1.70;;;12.20;99.90;;;;;;4960735;28;20046;-83
2022/11/06 11:58:56;;;;;;;8.93;1.85;;;12.20;99.90;;;;;;4945511;29;20071;-86
2022/11/06 12:01:39;;;;;;;7.53;1.88;;;12.20;99.90;;;;;;4958967;29;20408;-83
2022/11/06 12:04:30;;;;;;;5.05;1.90;;;12.20;99.90;;;;;;4922736;29;20078;-82
2022/11/06 12:07:02;;;;;;;5.72;1.58;;;12.30;99.90;;;;;;4916419;29;20059;-82
2022/11/06 12:09:32;;;;;;;4.30;1.52;;;12.40;99.90;;;;;;4936134;29;20051;-82
2022/11/06 12:11:59;;;;;;;3.65;1.60;;;12.40;99.90;;;;;;4920468;29;20043;-82
2022/11/06 12:14:27;;;;;;;6.65;1.73;;;12.40;99.90;;;;;;4936506;29;20047;-81
2022/11/06 12:17:06;;;;;;;9.80;2.85;;;12.40;99.90;;;;;;4931945;29;20039;-82
2022/11/06 12:19:35;;;;;;;6.18;1.92;;;12.50;99.90;;;;;;4939391;29;20430;-82
2022/11/06 12:22:07;;;;;;;6.50;1.63;;;12.50;99.90;;;;;;4939102;29;20082;-81
2022/11/06 12:24:36;;;;;;;5.38;1.80;;;12.40;99.90;;;;;;4939418;29;20197;-82
2022/11/06 12:27:26;;;;;;;4.93;1.77;;;12.40;99.90;;;;;;4938918;29;20514;-82
2022/11/06 12:30:05;;;;;;;9.32;2.00;;;12.40;99.90;;;;;;4955029;28;20173;-82
2022/11/06 12:32:45;;;;;;;6.43;1.90;;;12.40;99.90;;;;;;4939634;29;20047;-82
2022/11/06 12:35:19;;;;;;;8.38;2.20;;;12.40;99.90;;;;;;4955080;29;20183;-82
2022/11/06 12:37:59;;;;;;;7.43;1.88;;;12.40;99.90;;;;;;4955099;29;20130;-81
2022/11/06 12:40:30;;;;;;;4.50;1.52;;;12.50;99.90;;;;;;4938908;29;20046;-82
2022/11/06 12:43:12;;;;;;;7.78;1.60;;;12.40;99.90;;;;;;4955205;29;20051;-82
2022/11/06 12:45:46;;;;;;;3.80;1.63;;;12.50;99.90;;;;;;4951241;29;20131;-82
2022/11/06 12:48:24;;;;;;;6.72;1.80;;;12.40;99.90;;;;;;4937264;29;20043;-82
2022/11/06 12:51:13;;;;;;;6.97;1.73;;;12.50;99.90;;;;;;4954920;29;20039;-82
2022/11/06 12:54:06;;;;;;;6.80;1.70;;;12.50;99.90;;;;;;4933564;29;20086;-82
2022/11/06 12:57:00;;;;;;;3.85;1.30;;;12.40;99.90;;;;;;4954941;29;20036;-82
2022/11/06 12:59:55;;;;;;;5.95;1.50;;;12.40;99.90;;;;;;4938401;29;20051;-82
2022/11/06 13:02:56;;;;;;;7.20;1.67;;;12.50;99.90;;;;;;4938401;29;20051;-82
2022/11/06 13:05:47;;;;;;;4.22;1.70;;;12.50;99.90;;;;;;4881024;29;20156;-82
2022/11/06 13:08:40;;;;;;;8.10;1.58;;;12.50;99.90;;;;;;4935768;29;20524;-82
2022/11/06 13:11:26;;;;;;;3.95;1.70;;;12.40;99.90;;;;;;4938071;29;20396;-82
2022/11/06 13:14:14;;;;;;;6.22;1.60;;;12.50;99.90;;;;;;4928396;29;20130;-82
2022/11/06 13:17:13;;;;;;;6.90;1.58;;;12.50;99.90;;;;;;4919302;29;20071;-82
2022/11/06 13:19:59;;;;;;;4.25;1.30;;;12.50;99.90;;;;;;4920673;29;20043;-82
2022/11/06 13:22:32;;;;;;;6.55;2.00;;;12.60;99.90;;;;;;4920240;29;20087;-81